KEMP 231953Z AUTO 14009KT 10SM CLR 28/14 A3007 RMK AO2 SLP175 T02780144